sensor_id;sensor_type;location;lat;lon;timestamp;temperature;humidity
11656;DHT22;5884;43.618;1.438;2023-07-31T04:45:28;18.30;99.90
11656;DHT22;5884;43.618;1.438;2023-07-31T04:47:55;18.10;99.90
11656;DHT22;5884;43.618;1.438;2023-07-31T04:50:22;18.10;99.90
11656;DHT22;5884;43.618;1.438;2023-07-31T04:52:50;18.00;99.90
11656;DHT22;5884;43.618;1.438;2023-07-31T04:55:17;18.00;99.90
11656;DHT22;5884;43.618;1.438;2023-07-31T04:57:44;18.10;99.90
11656;DHT22;5884;43.618;1.438;2023-07-31T05:00:12;18.00;99.90
11656;DHT22;5884;43.618;1.438;2023-07-31T05:02:41;18.00;99.90
11656;DHT22;5884;43.618;1.438;2023-07-31T05:05:08;18.00;99.90
11656;DHT22;5884;43.618;1.438;2023-07-31T05:07:35;18.10;99.90
11656;DHT22;5884;43.618;1.438;2023-07-31T05:10:03;18.00;99.90
11656;DHT22;5884;43.618;1.438;2023-07-31T05:12:31;18.10;99.90
11656;DHT22;5884;43.618;1.438;2023-07-31T05:14:58;18.10;99.90
11656;DHT22;5884;43.618;1.438;2023-07-31T05:17:25;18.10;99.90
11656;DHT22;5884;43.618;1.438;2023-07-31T05:19:54;18.10;99.90
11656;DHT22;5884;43.618;1.438;2023-07-31T05:22:21;18.00;99.90
11656;DHT22;5884;43.618;1.438;2023-07-31T05:24:49;18.10;99.90
11656;DHT22;5884;43.618;1.438;2023-07-31T05:27:16;18.00;99.90
11656;DHT22;5884;43.618;1.438;2023-07-31T05:29:44;18.00;99.90
11656;DHT22;5884;43.618;1.438;2023-07-31T05:32:12;18.10;99.90
11656;DHT22;5884;43.618;1.438;2023-07-31T05:34:39;18.10;99.90
11656;DHT22;5884;43.618;1.438;2023-07-31T05:37:10;18.20;99.90
11656;DHT22;5884;43.618;1.438;2023-07-31T05:39:38;18.20;99.90
11656;DHT22;5884;43.618;1.438;2023-07-31T05:42:05;18.20;99.90
11656;DHT22;5884;43.618;1.438;2023-07-31T05:44:33;18.20;99.90
11656;DHT22;5884;43.618;1.438;2023-07-31T05:47:00;18.20;99.90
11656;DHT22;5884;43.618;1.438;2023-07-31T05:49:28;18.20;99.90
11656;DHT22;5884;43.618;1.438;2023-07-31T05:51:55;18.20;99.90
11656;DHT22;5884;43.618;1.438;2023-07-31T05:54:24;18.20;99.90
11656;DHT22;5884;43.618;1.438;2023-07-31T05:56:51;18.30;99.90
11656;DHT22;5884;43.618;1.438;2023-07-31T05:59:18;18.30;99.90
11656;DHT22;5884;43.618;1.438;2023-07-31T06:01:45;18.30;99.90
11656;DHT22;5884;43.618;1.438;2023-07-31T06:04:13;18.30;99.90
11656;DHT22;5884;43.618;1.438;2023-07-31T06:06:40;18.30;99.90
11656;DHT22;5884;43.618;1.438;2023-07-31T06:09:07;18.30;99.90
11656;DHT22;5884;43.618;1.438;2023-07-31T06:11:36;18.40;99.90
11656;DHT22;5884;43.618;1.438;2023-07-31T06:14:03;18.40;99.90
11656;DHT22;5884;43.618;1.438;2023-07-31T06:16:30;18.40;99.90
11656;DHT22;5884;43.618;1.438;2023-07-31T06:18:58;18.30;99.90
11656;DHT22;5884;43.618;1.438;2023-07-31T06:21:25;18.30;99.90
11656;DHT22;5884;43.618;1.438;2023-07-31T06:23:52;18.30;99.90
11656;DHT22;5884;43.618;1.438;2023-07-31T06:26:20;18.40;99.90
11656;DHT22;5884;43.618;1.438;2023-07-31T06:28:48;18.40;99.90
11656;DHT22;5884;43.618;1.438;2023-07-31T06:31:16;18.50;99.90
11656;DHT22;5884;43.618;1.438;2023-07-31T06:33:46;18.60;99.90
11656;DHT22;5884;43.618;1.438;2023-07-31T06:36:13;18.70;99.90
11656;DHT22;5884;43.618;1.438;2023-07-31T06:38:40;18.90;99.90
11656;DHT22;5884;43.618;1.438;2023-07-31T06:41:07;19.00;99.90
11656;DHT22;5884;43.618;1.438;2023-07-31T06:43:36;18.90;99.90
11656;DHT22;5884;43.618;1.438;2023-07-31T06:46:06;19.00;99.90
11656;DHT22;5884;43.618;1.438;2023-07-31T06:48:34;19.00;99.90
11656;DHT22;5884;43.618;1.438;2023-07-31T06:51:02;19.00;99.90
11656;DHT22;5884;43.618;1.438;2023-07-31T06:53:29;19.10;99.90
11656;DHT22;5884;43.618;1.438;2023-07-31T06:55:57;19.10;99.90
11656;DHT22;5884;43.618;1.438;2023-07-31T06:58:24;19.10;99.90
11656;DHT22;5884;43.618;1.438;2023-07-31T07:00:51;19.10;99.90
11656;DHT22;5884;43.618;1.438;2023-07-31T07:03:20;19.20;99.90
11656;DHT22;5884;43.618;1.438;2023-07-31T07:05:47;19.30;99.90
11656;DHT22;5884;43.618;1.438;2023-07-31T07:08:15;19.40;99.90
11656;DHT22;5884;43.618;1.438;2023-07-31T07:10:42;19.40;99.90
11656;DHT22;5884;43.618;1.438;2023-07-31T07:13:09;19.50;99.90
11656;DHT22;5884;43.618;1.438;2023-07-31T07:15:38;19.50;99.90
11656;DHT22;5884;43.618;1.438;2023-07-31T07:18:05;19.60;99.90
11656;DHT22;5884;43.618;1.438;2023-07-31T07:20:34;20.30;99.90
11656;DHT22;5884;43.618;1.438;2023-07-31T07:23:01;20.20;99.90
11656;DHT22;5884;43.618;1.438;2023-07-31T07:25:28;20.10;99.90
11656;DHT22;5884;43.618;1.438;2023-07-31T07:27:55;20.00;99.90
11656;DHT22;5884;43.618;1.438;2023-07-31T07:30:23;20.00;99.90
11656;DHT22;5884;43.618;1.438;2023-07-31T07:32:51;20.10;99.90
11656;DHT22;5884;43.618;1.438;2023-07-31T07:35:18;20.10;99.90
11656;DHT22;5884;43.618;1.438;2023-07-31T07:37:48;20.20;99.90
11656;DHT22;5884;43.618;1.438;2023-07-31T07:40:16;20.20;99.90
11656;DHT22;5884;43.618;1.438;2023-07-31T07:42:44;20.20;99.90
11656;DHT22;5884;43.618;1.438;2023-07-31T07:45:11;20.20;99.90
11656;DHT22;5884;43.618;1.438;2023-07-31T07:47:40;20.30;99.90
11656;DHT22;5884;43.618;1.438;2023-07-31T07:50:08;20.40;99.90
11656;DHT22;5884;43.618;1.438;2023-07-31T07:52:36;20.30;99.90
11656;DHT22;5884;43.618;1.438;2023-07-31T07:55:05;20.50;99.90
11656;DHT22;5884;43.618;1.438;2023-07-31T07:57:33;20.50;99.90
11656;DHT22;5884;43.618;1.438;2023-07-31T08:00:00;20.50;99.90
11656;DHT22;5884;43.618;1.438;2023-07-31T08:02:27;20.60;99.90
11656;DHT22;5884;43.618;1.438;2023-07-31T08:04:55;20.60;99.90
11656;DHT22;5884;43.618;1.438;2023-07-31T08:07:22;20.70;99.90
11656;DHT22;5884;43.618;1.438;2023-07-31T08:09:50;20.90;99.90
11656;DHT22;5884;43.618;1.438;2023-07-31T08:12:18;21.00;99.90
11656;DHT22;5884;43.618;1.438;2023-07-31T08:14:46;21.00;99.90
11656;DHT22;5884;43.618;1.438;2023-07-31T08:17:13;21.00;99.90
11656;DHT22;5884;43.618;1.438;2023-07-31T08:19:40;21.10;99.90
11656;DHT22;5884;43.618;1.438;2023-07-31T08:22:08;21.00;99.90
11656;DHT22;5884;43.618;1.438;2023-07-31T08:24:35;21.10;99.90
11656;DHT22;5884;43.618;1.438;2023-07-31T08:27:02;21.20;99.90
11656;DHT22;5884;43.618;1.438;2023-07-31T08:29:31;21.40;99.90
11656;DHT22;5884;43.618;1.438;2023-07-31T08:31:58;21.40;99.90
11656;DHT22;5884;43.618;1.438;2023-07-31T08:34:26;21.60;99.90
11656;DHT22;5884;43.618;1.438;2023-07-31T08:36:53;21.40;99.90
11656;DHT22;5884;43.618;1.438;2023-07-31T08:39:20;21.40;99.90
11656;DHT22;5884;43.618;1.438;2023-07-31T08:41:47;21.50;99.90
11656;DHT22;5884;43.618;1.438;2023-07-31T08:44:15;21.60;99.90
11656;DHT22;5884;43.618;1.438;2023-07-31T08:46:46;21.60;99.90
11656;DHT22;5884;43.618;1.438;2023-07-31T08:49:14;21.80;99.90
11656;DHT22;5884;43.618;1.438;2023-07-31T08:51:45;21.80;99.90
11656;DHT22;5884;43.618;1.438;2023-07-31T08:54:14;22.00;99.90
11656;DHT22;5884;43.618;1.438;2023-07-31T08:56:42;22.10;99.90
11656;DHT22;5884;43.618;1.438;2023-07-31T08:59:11;22.30;99.90
11656;DHT22;5884;43.618;1.438;2023-07-31T09:01:43;22.40;99.90
11656;DHT22;5884;43.618;1.438;2023-07-31T09:04:15;22.40;99.90
11656;DHT22;5884;43.618;1.438;2023-07-31T09:06:44;22.50;99.90
11656;DHT22;5884;43.618;1.438;2023-07-31T09:09:12;22.60;99.90
11656;DHT22;5884;43.618;1.438;2023-07-31T09:11:39;22.70;99.90
11656;DHT22;5884;43.618;1.438;2023-07-31T09:14:08;22.80;99.90
11656;DHT22;5884;43.618;1.438;2023-07-31T09:16:53;22.70;99.90
11656;DHT22;5884;43.618;1.438;2023-07-31T09:19:28;22.80;99.90
11656;DHT22;5884;43.618;1.438;2023-07-31T09:21:56;22.90;99.90
11656;DHT22;5884;43.618;1.438;2023-07-31T09:24:28;23.00;99.90
11656;DHT22;5884;43.618;1.438;2023-07-31T09:26:57;22.90;99.90
11656;DHT22;5884;43.618;1.438;2023-07-31T09:29:26;23.00;99.90
11656;DHT22;5884;43.618;1.438;2023-07-31T09:31:55;23.00;99.90
11656;DHT22;5884;43.618;1.438;2023-07-31T09:34:29;23.10;99.90
11656;DHT22;5884;43.618;1.438;2023-07-31T09:37:00;23.20;99.90
11656;DHT22;5884;43.618;1.438;2023-07-31T09:39:29;23.20;99.90
11656;DHT22;5884;43.618;1.438;2023-07-31T09:41:57;23.30;99.90
11656;DHT22;5884;43.618;1.438;2023-07-31T09:44:37;23.30;99.90
11656;DHT22;5884;43.618;1.438;2023-07-31T09:47:21;23.30;99.90
11656;DHT22;5884;43.618;1.438;2023-07-31T09:49:50;23.20;99.90
11656;DHT22;5884;43.618;1.438;2023-07-31T09:52:17;23.30;99.90
11656;DHT22;5884;43.618;1.438;2023-07-31T09:54:44;23.50;99.90
11656;DHT22;5884;43.618;1.438;2023-07-31T09:57:11;23.90;99.90
11656;DHT22;5884;43.618;1.438;2023-07-31T09:59:39;23.90;99.90
11656;DHT22;5884;43.618;1.438;2023-07-31T10:02:09;24.10;99.90
11656;DHT22;5884;43.618;1.438;2023-07-31T10:04:44;24.10;99.90
11656;DHT22;5884;43.618;1.438;2023-07-31T10:07:13;24.10;99.90
11656;DHT22;5884;43.618;1.438;2023-07-31T10:09:41;24.00;99.90
11656;DHT22;5884;43.618;1.438;2023-07-31T10:12:10;24.00;99.90
11656;DHT22;5884;43.618;1.438;2023-07-31T10:14:39;24.00;99.90
11656;DHT22;5884;43.618;1.438;2023-07-31T10:17:09;24.20;99.90
11656;DHT22;5884;43.618;1.438;2023-07-31T10:19:36;24.10;99.90
11656;DHT22;5884;43.618;1.438;2023-07-31T10:22:04;24.20;99.90
11656;DHT22;5884;43.618;1.438;2023-07-31T10:24:33;24.00;99.90
11656;DHT22;5884;43.618;1.438;2023-07-31T10:27:01;24.20;99.90
11656;DHT22;5884;43.618;1.438;2023-07-31T10:29:30;24.30;99.90
11656;DHT22;5884;43.618;1.438;2023-07-31T10:31:58;24.40;99.90
11656;DHT22;5884;43.618;1.438;2023-07-31T10:34:27;24.50;99.90
11656;DHT22;5884;43.618;1.438;2023-07-31T10:37:19;24.70;99.90
11656;DHT22;5884;43.618;1.438;2023-07-31T10:39:56;24.60;99.90
11656;DHT22;5884;43.618;1.438;2023-07-31T10:42:32;24.70;99.90
11656;DHT22;5884;43.618;1.438;2023-07-31T10:45:03;24.40;99.90
11656;DHT22;5884;43.618;1.438;2023-07-31T10:47:31;24.50;99.90
11656;DHT22;5884;43.618;1.438;2023-07-31T10:50:22;24.50;99.90
11656;DHT22;5884;43.618;1.438;2023-07-31T10:52:51;24.60;99.90
11656;DHT22;5884;43.618;1.438;2023-07-31T10:55:27;24.70;99.90
11656;DHT22;5884;43.618;1.438;2023-07-31T10:57:57;24.70;99.90
11656;DHT22;5884;43.618;1.438;2023-07-31T11:00:27;25.10;99.90
11656;DHT22;5884;43.618;1.438;2023-07-31T11:02:59;25.30;99.90
11656;DHT22;5884;43.618;1.438;2023-07-31T11:05:51;25.40;99.90
11656;DHT22;5884;43.618;1.438;2023-07-31T11:08:22;25.50;99.90
11656;DHT22;5884;43.618;1.438;2023-07-31T11:11:04;25.30;99.90
11656;DHT22;5884;43.618;1.438;2023-07-31T11:13:34;25.20;99.90
11656;DHT22;5884;43.618;1.438;2023-07-31T11:16:07;25.00;99.90
11656;DHT22;5884;43.618;1.438;2023-07-31T11:18:35;25.00;99.90
11656;DHT22;5884;43.618;1.438;2023-07-31T11:21:04;25.00;99.90
11656;DHT22;5884;43.618;1.438;2023-07-31T11:23:31;25.00;99.90
11656;DHT22;5884;43.618;1.438;2023-07-31T11:25:59;25.20;99.90
11656;DHT22;5884;43.618;1.438;2023-07-31T11:28:32;25.40;99.90
11656;DHT22;5884;43.618;1.438;2023-07-31T11:31:01;25.40;99.90
11656;DHT22;5884;43.618;1.438;2023-07-31T11:33:28;25.50;99.90
11656;DHT22;5884;43.618;1.438;2023-07-31T11:35:56;25.40;99.90
11656;DHT22;5884;43.618;1.438;2023-07-31T11:38:26;25.60;99.90
11656;DHT22;5884;43.618;1.438;2023-07-31T11:40:56;25.30;99.90
11656;DHT22;5884;43.618;1.438;2023-07-31T11:43:24;25.30;99.90
11656;DHT22;5884;43.618;1.438;2023-07-31T11:45:54;25.40;99.90
11656;DHT22;5884;43.618;1.438;2023-07-31T11:48:23;25.50;99.90
11656;DHT22;5884;43.618;1.438;2023-07-31T11:50:53;25.80;99.90
11656;DHT22;5884;43.618;1.438;2023-07-31T11:53:27;25.70;99.90
11656;DHT22;5884;43.618;1.438;2023-07-31T11:56:07;25.80;99.90
11656;DHT22;5884;43.618;1.438;2023-07-31T11:58:35;25.70;99.90
11656;DHT22;5884;43.618;1.438;2023-07-31T12:01:04;25.70;99.90
11656;DHT22;5884;43.618;1.438;2023-07-31T12:03:32;26.00;99.90
11656;DHT22;5884;43.618;1.438;2023-07-31T12:06:00;26.00;99.90
11656;DHT22;5884;43.618;1.438;2023-07-31T12:08:30;26.10;99.90
11656;DHT22;5884;43.618;1.438;2023-07-31T12:11:03;26.10;99.90
11656;DHT22;5884;43.618;1.438;2023-07-31T12:13:32;26.00;99.90
11656;DHT22;5884;43.618;1.438;2023-07-31T12:16:02;25.80;99.90
11656;DHT22;5884;43.618;1.438;2023-07-31T12:18:34;25.90;99.90
11656;DHT22;5884;43.618;1.438;2023-07-31T12:21:04;26.10;99.90
11656;DHT22;5884;43.618;1.438;2023-07-31T12:23:34;26.10;99.90
11656;DHT22;5884;43.618;1.438;2023-07-31T12:26:03;26.30;99.90
11656;DHT22;5884;43.618;1.438;2023-07-31T12:28:36;26.20;99.90
11656;DHT22;5884;43.618;1.438;2023-07-31T12:31:04;26.20;99.90
11656;DHT22;5884;43.618;1.438;2023-07-31T12:33:33;26.20;99.90
11656;DHT22;5884;43.618;1.438;2023-07-31T12:36:02;26.30;99.90
11656;DHT22;5884;43.618;1.438;2023-07-31T12:38:30;26.50;99.90
11656;DHT22;5884;43.618;1.438;2023-07-31T12:40:59;26.20;99.90
11656;DHT22;5884;43.618;1.438;2023-07-31T12:43:27;26.20;99.90
11656;DHT22;5884;43.618;1.438;2023-07-31T12:45:55;26.40;99.90
11656;DHT22;5884;43.618;1.438;2023-07-31T12:48:22;26.40;99.90
11656;DHT22;5884;43.618;1.438;2023-07-31T12:50:50;26.50;99.90
11656;DHT22;5884;43.618;1.438;2023-07-31T12:53:18;26.30;99.90
11656;DHT22;5884;43.618;1.438;2023-07-31T12:55:47;26.30;99.90
11656;DHT22;5884;43.618;1.438;2023-07-31T12:58:14;26.40;99.90
11656;DHT22;5884;43.618;1.438;2023-07-31T13:00:41;26.60;99.90
11656;DHT22;5884;43.618;1.438;2023-07-31T13:03:09;26.60;99.90
11656;DHT22;5884;43.618;1.438;2023-07-31T13:05:36;26.70;99.90
11656;DHT22;5884;43.618;1.438;2023-07-31T13:08:03;26.80;99.90
11656;DHT22;5884;43.618;1.438;2023-07-31T13:10:31;26.80;99.90
11656;DHT22;5884;43.618;1.438;2023-07-31T13:12:59;26.90;99.90
11656;DHT22;5884;43.618;1.438;2023-07-31T13:15:27;26.90;99.90
11656;DHT22;5884;43.618;1.438;2023-07-31T13:17:54;27.10;99.90
11656;DHT22;5884;43.618;1.438;2023-07-31T13:20:21;27.40;99.90
11656;DHT22;5884;43.618;1.438;2023-07-31T13:22:49;27.50;99.90
11656;DHT22;5884;43.618;1.438;2023-07-31T13:25:16;27.40;99.90
11656;DHT22;5884;43.618;1.438;2023-07-31T13:27:43;27.50;99.90
11656;DHT22;5884;43.618;1.438;2023-07-31T13:30:12;27.60;99.90
11656;DHT22;5884;43.618;1.438;2023-07-31T13:32:39;27.70;99.90
11656;DHT22;5884;43.618;1.438;2023-07-31T13:35:08;27.80;99.90
11656;DHT22;5884;43.618;1.438;2023-07-31T13:37:37;27.60;99.90
11656;DHT22;5884;43.618;1.438;2023-07-31T13:40:05;27.30;99.90
11656;DHT22;5884;43.618;1.438;2023-07-31T13:42:33;27.40;99.90
11656;DHT22;5884;43.618;1.438;2023-07-31T13:45:00;27.60;99.90
11656;DHT22;5884;43.618;1.438;2023-07-31T13:47:29;27.90;99.90
11656;DHT22;5884;43.618;1.438;2023-07-31T13:49:56;27.90;99.90
11656;DHT22;5884;43.618;1.438;2023-07-31T13:52:24;27.90;99.90
11656;DHT22;5884;43.618;1.438;2023-07-31T13:54:51;27.90;99.90
11656;DHT22;5884;43.618;1.438;2023-07-31T13:57:18;28.10;99.90
11656;DHT22;5884;43.618;1.438;2023-07-31T13:59:45;28.20;99.90
11656;DHT22;5884;43.618;1.438;2023-07-31T14:02:12;28.00;99.90
11656;DHT22;5884;43.618;1.438;2023-07-31T14:04:42;27.80;99.90
11656;DHT22;5884;43.618;1.438;2023-07-31T14:07:09;27.90;99.90
11656;DHT22;5884;43.618;1.438;2023-07-31T14:09:36;27.90;99.90
11656;DHT22;5884;43.618;1.438;2023-07-31T14:12:04;27.90;99.90
11656;DHT22;5884;43.618;1.438;2023-07-31T14:14:32;28.00;99.90
11656;DHT22;5884;43.618;1.438;2023-07-31T14:17:00;28.20;99.90
11656;DHT22;5884;43.618;1.438;2023-07-31T14:19:28;28.30;99.90
11656;DHT22;5884;43.618;1.438;2023-07-31T14:21:58;28.10;99.90
11656;DHT22;5884;43.618;1.438;2023-07-31T14:24:25;28.30;99.90
11656;DHT22;5884;43.618;1.438;2023-07-31T14:26:53;28.10;99.90
11656;DHT22;5884;43.618;1.438;2023-07-31T14:29:20;28.10;99.90
11656;DHT22;5884;43.618;1.438;2023-07-31T14:31:47;27.90;99.90
11656;DHT22;5884;43.618;1.438;2023-07-31T14:34:14;27.90;99.90
11656;DHT22;5884;43.618;1.438;2023-07-31T14:36:42;28.10;99.90
11656;DHT22;5884;43.618;1.438;2023-07-31T14:39:11;28.40;99.90
11656;DHT22;5884;43.618;1.438;2023-07-31T14:41:38;28.30;99.90
11656;DHT22;5884;43.618;1.438;2023-07-31T14:44:06;28.40;99.90
11656;DHT22;5884;43.618;1.438;2023-07-31T14:46:33;28.50;99.90
11656;DHT22;5884;43.618;1.438;2023-07-31T14:49:00;28.50;99.90
11656;DHT22;5884;43.618;1.438;2023-07-31T14:51:27;28.50;99.90
11656;DHT22;5884;43.618;1.438;2023-07-31T14:53:55;28.50;99.90
11656;DHT22;5884;43.618;1.438;2023-07-31T14:56:23;28.50;99.90
11656;DHT22;5884;43.618;1.438;2023-07-31T14:58:52;28.60;99.90
11656;DHT22;5884;43.618;1.438;2023-07-31T15:01:19;28.80;99.90
11656;DHT22;5884;43.618;1.438;2023-07-31T15:03:47;28.50;99.90
11656;DHT22;5884;43.618;1.438;2023-07-31T15:06:14;28.50;99.90
11656;DHT22;5884;43.618;1.438;2023-07-31T15:08:41;28.60;99.90
11656;DHT22;5884;43.618;1.438;2023-07-31T15:11:10;28.60;99.90
11656;DHT22;5884;43.618;1.438;2023-07-31T15:13:38;28.40;99.90
11656;DHT22;5884;43.618;1.438;2023-07-31T15:16:05;28.40;99.90
11656;DHT22;5884;43.618;1.438;2023-07-31T15:18:33;28.70;99.90
11656;DHT22;5884;43.618;1.438;2023-07-31T15:21:00;28.90;99.90
11656;DHT22;5884;43.618;1.438;2023-07-31T15:23:27;28.90;99.90
11656;DHT22;5884;43.618;1.438;2023-07-31T15:25:55;28.60;99.90
11656;DHT22;5884;43.618;1.438;2023-07-31T15:28:22;28.70;99.90
11656;DHT22;5884;43.618;1.438;2023-07-31T15:30:51;28.70;99.90
11656;DHT22;5884;43.618;1.438;2023-07-31T15:33:18;28.60;99.90
11656;DHT22;5884;43.618;1.438;2023-07-31T15:35:45;28.50;99.90
11656;DHT22;5884;43.618;1.438;2023-07-31T15:38:13;28.60;99.90
11656;DHT22;5884;43.618;1.438;2023-07-31T15:40:40;28.60;99.90
11656;DHT22;5884;43.618;1.438;2023-07-31T15:43:07;28.60;99.90
11656;DHT22;5884;43.618;1.438;2023-07-31T15:45:34;28.70;99.90
11656;DHT22;5884;43.618;1.438;2023-07-31T15:48:04;28.70;99.90
11656;DHT22;5884;43.618;1.438;2023-07-31T15:50:31;28.70;99.90
11656;DHT22;5884;43.618;1.438;2023-07-31T15:52:58;28.60;99.90
11656;DHT22;5884;43.618;1.438;2023-07-31T15:55:26;28.60;99.90
11656;DHT22;5884;43.618;1.438;2023-07-31T15:57:53;28.60;99.90
11656;DHT22;5884;43.618;1.438;2023-07-31T16:00:20;28.60;99.90
11656;DHT22;5884;43.618;1.438;2023-07-31T16:02:48;28.50;99.90
11656;DHT22;5884;43.618;1.438;2023-07-31T16:05:17;28.50;99.90
11656;DHT22;5884;43.618;1.438;2023-07-31T16:07:45;28.50;99.90
11656;DHT22;5884;43.618;1.438;2023-07-31T16:10:12;28.50;99.90
11656;DHT22;5884;43.618;1.438;2023-07-31T16:12:39;28.50;99.90
11656;DHT22;5884;43.618;1.438;2023-07-31T16:15:08;28.50;99.90
11656;DHT22;5884;43.618;1.438;2023-07-31T16:17:36;28.50;99.90
11656;DHT22;5884;43.618;1.438;2023-07-31T16:20:04;28.30;99.90
11656;DHT22;5884;43.618;1.438;2023-07-31T16:22:34;28.40;99.90
11656;DHT22;5884;43.618;1.438;2023-07-31T16:25:01;28.30;99.90
11656;DHT22;5884;43.618;1.438;2023-07-31T16:27:29;28.30;99.90
11656;DHT22;5884;43.618;1.438;2023-07-31T16:29:56;28.30;99.90
11656;DHT22;5884;43.618;1.438;2023-07-31T16:32:26;28.40;99.90
11656;DHT22;5884;43.618;1.438;2023-07-31T16:34:53;28.40;99.90
11656;DHT22;5884;43.618;1.438;2023-07-31T16:37:21;28.40;99.90
11656;DHT22;5884;43.618;1.438;2023-07-31T16:39:49;28.50;99.90
11656;DHT22;5884;43.618;1.438;2023-07-31T16:42:17;28.40;99.90
11656;DHT22;5884;43.618;1.438;2023-07-31T16:44:45;28.40;99.90
11656;DHT22;5884;43.618;1.438;2023-07-31T16:47:12;28.40;99.90
11656;DHT22;5884;43.618;1.438;2023-07-31T16:49:40;28.40;99.90
11656;DHT22;5884;43.618;1.438;2023-07-31T16:52:08;28.30;99.90
11656;DHT22;5884;43.618;1.438;2023-07-31T16:54:35;28.30;99.90
11656;DHT22;5884;43.618;1.438;2023-07-31T16:57:04;28.20;99.90
11656;DHT22;5884;43.618;1.438;2023-07-31T16:59:32;28.10;99.90
11656;DHT22;5884;43.618;1.438;2023-07-31T17:01:59;28.10;99.90
11656;DHT22;5884;43.618;1.438;2023-07-31T17:04:26;28.10;99.90
11656;DHT22;5884;43.618;1.438;2023-07-31T17:06:56;28.10;99.90
11656;DHT22;5884;43.618;1.438;2023-07-31T17:09:23;28.10;99.90
11656;DHT22;5884;43.618;1.438;2023-07-31T17:11:51;28.00;99.90
11656;DHT22;5884;43.618;1.438;2023-07-31T17:14:20;28.10;99.90
11656;DHT22;5884;43.618;1.438;2023-07-31T17:16:47;28.10;99.90
11656;DHT22;5884;43.618;1.438;2023-07-31T17:19:14;28.00;99.90
11656;DHT22;5884;43.618;1.438;2023-07-31T17:21:41;28.00;99.90
11656;DHT22;5884;43.618;1.438;2023-07-31T17:24:09;27.90;99.90
11656;DHT22;5884;43.618;1.438;2023-07-31T17:26:36;27.90;99.90
11656;DHT22;5884;43.618;1.438;2023-07-31T17:29:03;27.80;99.90
11656;DHT22;5884;43.618;1.438;2023-07-31T17:31:32;27.80;99.90
11656;DHT22;5884;43.618;1.438;2023-07-31T17:34:00;27.80;99.90
11656;DHT22;5884;43.618;1.438;2023-07-31T17:36:27;27.80;99.90
11656;DHT22;5884;43.618;1.438;2023-07-31T17:38:54;27.70;99.90
11656;DHT22;5884;43.618;1.438;2023-07-31T17:41:22;27.70;99.90
11656;DHT22;5884;43.618;1.438;2023-07-31T17:43:49;27.80;99.90
11656;DHT22;5884;43.618;1.438;2023-07-31T17:46:17;27.70;99.90
11656;DHT22;5884;43.618;1.438;2023-07-31T17:48:45;27.60;99.90
11656;DHT22;5884;43.618;1.438;2023-07-31T17:51:13;27.60;99.90
11656;DHT22;5884;43.618;1.438;2023-07-31T17:53:40;27.50;99.90
11656;DHT22;5884;43.618;1.438;2023-07-31T17:56:08;27.50;99.90
11656;DHT22;5884;43.618;1.438;2023-07-31T17:58:35;27.40;99.90
11656;DHT22;5884;43.618;1.438;2023-07-31T18:01:03;27.30;99.90
11656;DHT22;5884;43.618;1.438;2023-07-31T18:03:30;27.20;99.90
11656;DHT22;5884;43.618;1.438;2023-07-31T18:05:58;27.20;99.90
11656;DHT22;5884;43.618;1.438;2023-07-31T18:08:26;27.10;99.90
11656;DHT22;5884;43.618;1.438;2023-07-31T18:10:53;27.00;99.90
11656;DHT22;5884;43.618;1.438;2023-07-31T18:13:21;27.00;99.90
11656;DHT22;5884;43.618;1.438;2023-07-31T18:15:48;26.90;99.90
11656;DHT22;5884;43.618;1.438;2023-07-31T18:18:15;26.80;99.90
11656;DHT22;5884;43.618;1.438;2023-07-31T18:20:42;26.70;99.90
11656;DHT22;5884;43.618;1.438;2023-07-31T18:23:12;26.70;99.90
11656;DHT22;5884;43.618;1.438;2023-07-31T18:25:40;26.60;99.90
11656;DHT22;5884;43.618;1.438;2023-07-31T18:28:07;26.60;99.90
11656;DHT22;5884;43.618;1.438;2023-07-31T18:30:34;26.50;99.90
11656;DHT22;5884;43.618;1.438;2023-07-31T18:33:02;26.40;99.90
11656;DHT22;5884;43.618;1.438;2023-07-31T18:35:29;26.30;99.90
11656;DHT22;5884;43.618;1.438;2023-07-31T18:37:56;26.30;99.90
11656;DHT22;5884;43.618;1.438;2023-07-31T18:40:25;26.20;99.90
11656;DHT22;5884;43.618;1.438;2023-07-31T18:42:52;26.10;99.90
11656;DHT22;5884;43.618;1.438;2023-07-31T18:45:20;26.10;99.90
11656;DHT22;5884;43.618;1.438;2023-07-31T18:47:47;26.00;99.90
11656;DHT22;5884;43.618;1.438;2023-07-31T18:50:15;25.90;99.90
11656;DHT22;5884;43.618;1.438;2023-07-31T18:52:42;25.90;99.90
11656;DHT22;5884;43.618;1.438;2023-07-31T18:55:10;25.80;99.90
11656;DHT22;5884;43.618;1.438;2023-07-31T18:57:38;25.70;99.90
11656;DHT22;5884;43.618;1.438;2023-07-31T19:00:06;25.60;99.90
11656;DHT22;5884;43.618;1.438;2023-07-31T19:02:34;25.60;99.90
11656;DHT22;5884;43.618;1.438;2023-07-31T19:05:02;25.60;99.90
11656;DHT22;5884;43.618;1.438;2023-07-31T19:07:30;25.50;99.90
11656;DHT22;5884;43.618;1.438;2023-07-31T19:09:57;25.50;99.90
11656;DHT22;5884;43.618;1.438;2023-07-31T19:12:25;25.40;99.90
11656;DHT22;5884;43.618;1.438;2023-07-31T19:14:54;25.40;99.90
11656;DHT22;5884;43.618;1.438;2023-07-31T19:17:21;25.30;99.90
11656;DHT22;5884;43.618;1.438;2023-07-31T19:19:48;25.30;99.90
11656;DHT22;5884;43.618;1.438;2023-07-31T19:22:15;25.20;99.90
11656;DHT22;5884;43.618;1.438;2023-07-31T19:24:43;25.20;99.90
11656;DHT22;5884;43.618;1.438;2023-07-31T19:27:10;25.10;99.90
11656;DHT22;5884;43.618;1.438;2023-07-31T19:29:37;25.10;99.90
11656;DHT22;5884;43.618;1.438;2023-07-31T19:32:06;25.10;99.90
11656;DHT22;5884;43.618;1.438;2023-07-31T19:34:33;25.00;99.90
11656;DHT22;5884;43.618;1.438;2023-07-31T19:37:01;25.00;99.90
11656;DHT22;5884;43.618;1.438;2023-07-31T19:39:28;25.00;99.90
11656;DHT22;5884;43.618;1.438;2023-07-31T19:41:55;25.00;99.90
11656;DHT22;5884;43.618;1.438;2023-07-31T19:44:23;24.90;99.90
11656;DHT22;5884;43.618;1.438;2023-07-31T19:46:50;24.90;99.90
11656;DHT22;5884;43.618;1.438;2023-07-31T19:49:18;24.80;99.90
11656;DHT22;5884;43.618;1.438;2023-07-31T19:51:46;24.80;99.90
11656;DHT22;5884;43.618;1.438;2023-07-31T19:54:14;24.70;99.90
11656;DHT22;5884;43.618;1.438;2023-07-31T19:56:41;24.60;99.90
11656;DHT22;5884;43.618;1.438;2023-07-31T19:59:09;24.60;99.90
11656;DHT22;5884;43.618;1.438;2023-07-31T20:01:36;24.60;99.90
11656;DHT22;5884;43.618;1.438;2023-07-31T20:04:03;24.50;99.90
11656;DHT22;5884;43.618;1.438;2023-07-31T20:06:32;24.50;99.90
11656;DHT22;5884;43.618;1.438;2023-07-31T20:08:59;24.50;99.90
11656;DHT22;5884;43.618;1.438;2023-07-31T20:11:29;24.40;99.90
11656;DHT22;5884;43.618;1.438;2023-07-31T20:13:57;24.40;99.90
11656;DHT22;5884;43.618;1.438;2023-07-31T20:16:24;24.30;99.90
11656;DHT22;5884;43.618;1.438;2023-07-31T20:18:51;24.30;99.90
11656;DHT22;5884;43.618;1.438;2023-07-31T20:21:19;24.30;99.90
11656;DHT22;5884;43.618;1.438;2023-07-31T20:23:47;24.30;99.90
11656;DHT22;5884;43.618;1.438;2023-07-31T20:26:14;24.30;99.90
11656;DHT22;5884;43.618;1.438;2023-07-31T20:28:42;24.20;99.90
11656;DHT22;5884;43.618;1.438;2023-07-31T20:31:09;24.20;99.90
11656;DHT22;5884;43.618;1.438;2023-07-31T20:33:36;24.10;99.90
11656;DHT22;5884;43.618;1.438;2023-07-31T20:36:04;24.10;99.90